createdAt,value
2023-01-19T00:01:27.900Z,14.26
2023-01-19T00:03:55.870Z,14.65
2023-01-19T00:06:23.809Z,14.74
2023-01-19T00:08:51.771Z,14.03
2023-01-19T00:11:19.785Z,14.08
2023-01-19T00:13:51.022Z,14.04
2023-01-19T00:16:23.177Z,13.90
2023-01-19T00:18:52.688Z,13.78
2023-01-19T00:21:22.473Z,13.80
2023-01-19T00:23:52.701Z,14.41
2023-01-19T00:26:22.162Z,14.98
2023-01-19T00:28:51.061Z,14.85
2023-01-19T00:31:21.924Z,14.86
2023-01-19T00:33:52.787Z,15.09
2023-01-19T00:36:20.941Z,14.91
2023-01-19T00:38:48.891Z,15.33
2023-01-19T00:41:17.345Z,15.46
2023-01-19T00:43:44.400Z,15.45
2023-01-19T00:46:12.369Z,15.35
2023-01-19T00:48:41.669Z,15.08
2023-01-19T00:51:09.640Z,14.92
2023-01-19T00:53:37.559Z,14.68
2023-01-19T00:56:05.849Z,14.49
2023-01-19T00:58:33.992Z,14.85
2023-01-19T01:01:03.817Z,14.72
2023-01-19T01:03:33.392Z,15.21
2023-01-19T01:06:03.740Z,15.44
2023-01-19T01:08:31.806Z,15.24
2023-01-19T01:10:59.882Z,13.70
2023-01-19T01:13:28.999Z,15.38
2023-01-19T01:15:57.899Z,15.50
2023-01-19T01:18:26.474Z,15.12
2023-01-19T01:20:56.268Z,15.67
2023-01-19T01:23:25.603Z,15.64
2023-01-19T01:25:53.556Z,15.36
2023-01-19T01:28:21.564Z,15.32
2023-01-19T01:30:49.573Z,15.27
2023-01-19T01:33:40.016Z,15.25
2023-01-19T01:36:06.207Z,15.32
2023-01-19T01:38:35.530Z,15.30
2023-01-19T01:41:03.627Z,15.24
2023-01-19T01:43:45.124Z,15.08
2023-01-19T01:46:15.768Z,15.35
2023-01-19T01:48:50.290Z,15.59
2023-01-19T01:51:27.039Z,15.86
2023-01-19T01:54:09.803Z,15.91
2023-01-19T01:56:40.198Z,15.89
2023-01-19T01:59:13.493Z,15.91
2023-01-19T02:01:58.900Z,15.99
2023-01-19T02:04:28.037Z,15.53
2023-01-19T02:07:13.591Z,15.73
2023-01-19T02:10:00.260Z,15.78
2023-01-19T02:12:46.543Z,15.80
2023-01-19T02:15:20.219Z,15.71
2023-01-19T02:17:48.755Z,15.65
2023-01-19T02:20:18.532Z,15.67
2023-01-19T02:22:50.112Z,15.93
2023-01-19T02:25:21.405Z,15.88
2023-01-19T02:27:51.311Z,15.82
2023-01-19T02:30:20.272Z,15.86
2023-01-19T02:32:48.286Z,15.89
2023-01-19T02:35:16.725Z,15.92
2023-01-19T02:37:46.261Z,15.95
2023-01-19T02:40:16.511Z,15.89
2023-01-19T02:42:49.579Z,16.00
2023-01-19T02:45:21.899Z,16.01
2023-01-19T02:47:52.090Z,15.95
2023-01-19T02:50:38.873Z,15.87
2023-01-19T02:53:21.368Z,15.91
2023-01-19T02:55:55.047Z,15.87
2023-01-19T02:58:34.784Z,15.58
2023-01-19T03:01:14.100Z,15.83
2023-01-19T03:03:53.602Z,15.74
2023-01-19T03:06:34.885Z,15.77
2023-01-19T03:09:10.071Z,15.78
2023-01-19T03:11:43.705Z,15.26
2023-01-19T03:14:18.219Z,15.64
2023-01-19T03:16:49.019Z,15.66
2023-01-19T03:19:23.431Z,15.67
2023-01-19T03:21:56.321Z,15.77
2023-01-19T03:24:28.204Z,15.67
2023-01-19T03:27:01.333Z,15.68
2023-01-19T03:29:35.261Z,15.64
2023-01-19T03:32:09.258Z,15.58
2023-01-19T03:34:40.401Z,15.32
2023-01-19T03:37:11.616Z,15.66
2023-01-19T03:39:39.920Z,15.70
2023-01-19T03:42:12.667Z,15.62
2023-01-19T03:44:45.273Z,15.29
2023-01-19T03:47:18.518Z,15.71
2023-01-19T03:49:49.048Z,15.51
2023-01-19T03:52:20.869Z,15.68
2023-01-19T03:54:49.488Z,15.59
2023-01-19T03:57:17.424Z,15.56
2023-01-19T03:59:46.735Z,15.59
2023-01-19T04:02:15.013Z,15.74
2023-01-19T04:04:43.139Z,15.77
2023-01-19T04:07:11.798Z,15.76
2023-01-19T04:09:39.755Z,15.76
2023-01-19T04:12:14.918Z,15.74
2023-01-19T04:14:42.952Z,15.74
2023-01-19T04:17:12.217Z,15.68
2023-01-19T04:19:45.179Z,15.72
2023-01-19T04:22:13.053Z,15.85
2023-01-19T04:24:40.971Z,15.92
2023-01-19T04:27:09.367Z,16.07
2023-01-19T04:29:37.309Z,15.99
2023-01-19T04:32:05.664Z,15.89
2023-01-19T04:34:35.320Z,15.72
2023-01-19T04:37:05.028Z,15.97
2023-01-19T04:39:32.947Z,15.96
2023-01-19T04:42:00.903Z,15.87
2023-01-19T04:44:29.215Z,16.01
2023-01-19T04:46:57.209Z,15.74
2023-01-19T04:49:25.284Z,16.03
2023-01-19T04:51:55.806Z,16.01
2023-01-19T04:54:23.923Z,15.79
2023-01-19T04:56:52.062Z,15.91
2023-01-19T04:59:21.348Z,15.91
2023-01-19T05:01:49.322Z,16.04
2023-01-19T05:04:17.603Z,16.08
2023-01-19T05:06:45.690Z,15.96
2023-01-19T05:09:15.562Z,15.98
2023-01-19T05:11:43.578Z,15.78
2023-01-19T05:14:11.715Z,15.87
2023-01-19T05:16:39.683Z,15.96
2023-01-19T05:19:07.680Z,15.98
2023-01-19T05:21:35.547Z,15.99
2023-01-19T05:24:04.127Z,15.98
2023-01-19T05:26:33.504Z,16.00
2023-01-19T05:29:01.354Z,16.09
2023-01-19T05:31:29.363Z,15.91
2023-01-19T05:33:57.489Z,16.03
2023-01-19T05:36:25.463Z,16.01
2023-01-19T05:38:53.406Z,16.04
2023-01-19T05:41:21.302Z,16.08
2023-01-19T05:43:50.546Z,16.10
2023-01-19T05:46:18.469Z,16.08
2023-01-19T05:48:46.439Z,16.27
2023-01-19T05:51:15.257Z,16.26
2023-01-19T05:53:43.414Z,16.16
2023-01-19T05:56:12.257Z,16.28
2023-01-19T05:58:40.656Z,16.10
2023-01-19T06:01:12.130Z,16.20
2023-01-19T06:03:41.019Z,15.93
2023-01-19T06:06:09.190Z,16.19
2023-01-19T06:08:37.574Z,16.19
2023-01-19T06:11:07.080Z,16.23
2023-01-19T06:13:35.570Z,16.35
2023-01-19T06:16:05.395Z,16.36
2023-01-19T06:18:35.107Z,16.51
2023-01-19T06:21:05.740Z,16.62
2023-01-19T06:23:35.023Z,16.65
2023-01-19T06:26:03.381Z,16.72
2023-01-19T06:28:31.414Z,16.75
2023-01-19T06:30:59.421Z,16.78
2023-01-19T06:33:27.880Z,16.82
2023-01-19T06:35:57.690Z,16.57
2023-01-19T06:38:25.750Z,17.01
2023-01-19T06:40:55.036Z,17.01
2023-01-19T06:43:23.472Z,17.02
2023-01-19T06:45:51.952Z,16.88
2023-01-19T06:48:20.501Z,17.30
2023-01-19T06:50:48.928Z,17.41
2023-01-19T06:53:20.808Z,17.37
2023-01-19T06:55:48.807Z,17.54
2023-01-19T06:58:16.941Z,17.61
2023-01-19T07:00:45.207Z,17.67
2023-01-19T07:03:20.612Z,17.64
2023-01-19T07:05:49.978Z,17.75
2023-01-19T07:08:19.397Z,17.54
2023-01-19T07:11:26.172Z,17.61
2023-01-19T07:13:36.213Z,17.80
2023-01-19T07:16:07.481Z,17.98
2023-01-19T07:18:36.472Z,17.93
2023-01-19T07:21:05.173Z,18.06
2023-01-19T07:23:35.049Z,17.90
2023-01-19T07:26:05.833Z,18.12
2023-01-19T07:28:33.916Z,17.92
2023-01-19T07:31:02.009Z,18.23
2023-01-19T07:33:30.173Z,18.27
2023-01-19T07:35:58.550Z,18.31
2023-01-19T07:38:26.638Z,18.21
2023-01-19T07:41:02.567Z,18.34
2023-01-19T07:43:30.870Z,18.32
2023-01-19T07:45:59.291Z,18.21
2023-01-19T07:48:27.318Z,18.34
2023-01-19T07:51:00.219Z,18.26
2023-01-19T07:53:28.188Z,18.44
2023-01-19T07:55:56.895Z,18.50
2023-01-19T07:58:26.486Z,18.43
2023-01-19T08:00:54.997Z,18.38
2023-01-19T08:03:23.255Z,18.56
2023-01-19T08:05:53.118Z,18.60
2023-01-19T08:08:21.327Z,18.50
2023-01-19T08:10:51.756Z,18.57
2023-01-19T08:13:19.843Z,18.55
2023-01-19T08:15:52.369Z,18.53
2023-01-19T08:18:21.187Z,18.65
2023-01-19T08:20:49.301Z,18.55
2023-01-19T08:23:18.408Z,18.67
2023-01-19T08:26:20.741Z,18.73
2023-01-19T08:28:48.655Z,18.72
2023-01-19T08:31:21.708Z,18.78
2023-01-19T08:33:51.120Z,19.07
2023-01-19T08:36:19.200Z,18.91
2023-01-19T08:38:47.606Z,18.84
2023-01-19T08:41:16.516Z,18.83
2023-01-19T08:43:45.541Z,19.08
2023-01-19T08:46:16.993Z,18.87
2023-01-19T08:48:48.285Z,18.89
2023-01-19T08:51:16.790Z,18.89
2023-01-19T08:53:45.079Z,18.99
2023-01-19T08:56:14.043Z,18.92
2023-01-19T08:58:43.011Z,19.08
2023-01-19T09:01:14.695Z,18.90
2023-01-19T09:03:42.811Z,18.91
2023-01-19T09:06:14.641Z,18.74
2023-01-19T09:08:42.505Z,19.10
2023-01-19T09:11:13.239Z,18.95
2023-01-19T09:13:41.786Z,19.17
2023-01-19T09:16:12.731Z,19.30
2023-01-19T09:18:41.156Z,19.44
2023-01-19T09:21:10.275Z,19.54
2023-01-19T09:23:39.593Z,19.53
2023-01-19T09:26:08.659Z,19.35
2023-01-19T09:28:36.631Z,19.34
2023-01-19T09:31:07.695Z,19.52
2023-01-19T09:33:36.425Z,19.65
2023-01-19T09:36:04.632Z,20.10
2023-01-19T09:38:33.111Z,19.86
2023-01-19T09:41:04.362Z,19.46
2023-01-19T09:43:38.588Z,19.47
2023-01-19T09:46:12.510Z,19.34
2023-01-19T09:48:47.170Z,19.63
2023-01-19T09:51:19.505Z,19.58
2023-01-19T09:53:56.453Z,19.69
2023-01-19T09:56:26.308Z,19.64
2023-01-19T09:58:54.482Z,19.63
2023-01-19T10:01:36.434Z,19.68
2023-01-19T10:04:27.117Z,19.56
2023-01-19T10:07:04.941Z,19.47
2023-01-19T10:09:38.171Z,19.72
2023-01-19T10:12:18.447Z,19.90
2023-01-19T10:14:54.905Z,20.10
2023-01-19T10:17:38.270Z,20.06
2023-01-19T10:20:18.124Z,19.80
2023-01-19T10:22:51.968Z,20.39
2023-01-19T10:25:23.918Z,19.83
2023-01-19T10:27:53.270Z,20.06
2023-01-19T10:30:24.029Z,19.73
2023-01-19T10:32:53.805Z,20.03
2023-01-19T10:35:25.228Z,19.68
2023-01-19T10:37:56.453Z,19.51
2023-01-19T10:40:32.095Z,18.72
2023-01-19T10:43:02.203Z,18.76
2023-01-19T10:45:32.565Z,18.96
2023-01-19T10:48:06.761Z,18.90
2023-01-19T10:50:39.981Z,18.69
2023-01-19T10:53:20.565Z,18.58
2023-01-19T10:55:48.448Z,18.82
2023-01-19T10:58:31.030Z,19.17
2023-01-19T11:01:15.337Z,19.27
2023-01-19T11:03:43.411Z,18.90
2023-01-19T11:06:22.985Z,18.53
2023-01-19T11:08:52.949Z,17.98
2023-01-19T11:11:22.765Z,17.81
2023-01-19T11:14:10.912Z,18.19
2023-01-19T11:16:40.217Z,18.09
2023-01-19T11:19:20.760Z,18.01
2023-01-19T11:21:49.267Z,18.13
2023-01-19T11:24:18.025Z,18.11
2023-01-19T11:26:49.298Z,18.36
2023-01-19T11:29:21.998Z,18.56
2023-01-19T11:34:39.097Z,18.55
2023-01-19T11:37:26.460Z,18.40
2023-01-19T11:39:57.111Z,18.06
2023-01-19T11:42:26.506Z,18.17
2023-01-19T11:45:04.294Z,18.23
2023-01-19T11:47:39.515Z,18.18
2023-01-19T11:50:14.621Z,18.11
2023-01-19T11:52:46.326Z,18.15
2023-01-19T11:55:21.213Z,18.28
2023-01-19T11:57:54.284Z,18.28
2023-01-19T12:00:30.268Z,18.16
2023-01-19T12:03:04.173Z,18.17
2023-01-19T12:05:35.419Z,18.16
2023-01-19T12:08:07.966Z,18.15
2023-01-19T12:10:43.851Z,18.28
2023-01-19T12:13:21.811Z,18.09
2023-01-19T12:15:57.905Z,18.33
2023-01-19T12:18:29.801Z,18.21
2023-01-19T12:20:58.907Z,18.17
2023-01-19T12:23:37.491Z,18.17
2023-01-19T12:26:30.083Z,18.54
2023-01-19T12:29:01.567Z,18.86
2023-01-19T12:31:31.180Z,18.83
2023-01-19T12:34:40.621Z,18.73
2023-01-19T12:37:25.780Z,18.58
2023-01-19T12:39:54.224Z,19.02
2023-01-19T12:42:22.289Z,18.96
2023-01-19T12:44:52.821Z,18.76
2023-01-19T12:47:24.499Z,18.46
2023-01-19T12:49:59.589Z,18.21
2023-01-19T12:52:34.768Z,17.88
2023-01-19T12:55:21.062Z,18.10
2023-01-19T12:58:00.221Z,18.02
2023-01-19T13:00:40.024Z,17.98
2023-01-19T13:03:46.563Z,17.92
2023-01-19T13:06:14.477Z,17.88
2023-01-19T13:09:00.820Z,17.34
2023-01-19T13:11:34.133Z,18.04
2023-01-19T13:14:35.494Z,17.82
2023-01-19T13:17:19.217Z,18.36
2023-01-19T13:20:03.240Z,18.49
2023-01-19T13:23:15.843Z,18.02
2023-01-19T13:26:00.171Z,18.69
2023-01-19T13:28:36.660Z,18.59
2023-01-19T13:31:07.171Z,18.61
2023-01-19T13:33:48.514Z,18.49
2023-01-19T13:36:26.905Z,18.43
2023-01-19T13:38:56.518Z,18.51
2023-01-19T13:41:27.053Z,18.65
2023-01-19T13:44:01.420Z,18.61
2023-01-19T13:46:30.098Z,18.83
2023-01-19T13:49:01.205Z,18.81
2023-01-19T13:51:30.766Z,18.79
2023-01-19T13:54:02.805Z,18.69
2023-01-19T13:56:31.678Z,18.58
2023-01-19T13:59:02.281Z,18.51
2023-01-19T14:01:32.168Z,18.54
2023-01-19T14:04:00.941Z,18.53
2023-01-19T14:06:37.238Z,18.49
2023-01-19T14:09:19.057Z,18.34
2023-01-19T14:11:48.668Z,18.10
2023-01-19T14:14:32.825Z,17.92
2023-01-19T14:17:00.865Z,17.89
2023-01-19T14:19:29.028Z,17.78
2023-01-19T14:22:03.978Z,17.69
2023-01-19T14:24:33.348Z,17.65
2023-01-19T14:27:19.358Z,17.61
2023-01-19T14:29:50.479Z,17.28
2023-01-19T14:32:22.530Z,17.03
2023-01-19T14:34:54.175Z,16.67
2023-01-19T14:37:29.089Z,17.38
2023-01-19T14:40:01.579Z,17.39
2023-01-19T14:42:33.482Z,17.36
2023-01-19T14:45:04.294Z,16.91
2023-01-19T14:47:38.026Z,17.32
2023-01-19T14:50:10.879Z,17.29
2023-01-19T14:52:46.517Z,16.91
2023-01-19T14:55:22.640Z,17.05
2023-01-19T14:57:50.885Z,17.15
2023-01-19T15:00:20.852Z,17.16
2023-01-19T15:02:49.131Z,17.11
2023-01-19T15:05:17.818Z,17.13
2023-01-19T15:07:48.023Z,17.09
2023-01-19T15:10:21.463Z,16.80
2023-01-19T15:12:50.002Z,17.19
2023-01-19T15:15:19.821Z,17.17
2023-01-19T15:17:47.920Z,16.94
2023-01-19T15:20:19.033Z,17.00
2023-01-19T15:22:49.159Z,16.93
2023-01-19T15:25:19.779Z,17.00
2023-01-19T15:27:49.008Z,17.04
2023-01-19T15:30:20.532Z,17.06
2023-01-19T15:32:49.005Z,16.96
2023-01-19T15:35:21.327Z,16.78
2023-01-19T15:37:51.303Z,16.25
2023-01-19T15:40:22.815Z,15.65
2023-01-19T15:42:51.681Z,15.57
2023-01-19T15:45:33.183Z,15.45
2023-01-19T15:48:02.688Z,15.36
2023-01-19T15:50:31.138Z,15.14
2023-01-19T15:53:00.712Z,15.03
2023-01-19T15:55:28.749Z,14.80
2023-01-19T15:58:01.645Z,14.75
2023-01-19T16:00:30.914Z,14.42
2023-01-19T16:02:59.605Z,14.64
2023-01-19T16:05:41.929Z,14.80
2023-01-19T16:08:12.470Z,14.80
2023-01-19T16:10:42.764Z,14.78
2023-01-19T16:13:12.486Z,14.70
2023-01-19T16:15:42.303Z,14.52
2023-01-19T16:18:10.374Z,13.96
2023-01-19T16:20:38.630Z,14.62
2023-01-19T16:23:15.225Z,14.68
2023-01-19T16:25:45.576Z,13.29
2023-01-19T16:28:13.891Z,14.78
2023-01-19T16:30:41.878Z,14.83
2023-01-19T16:33:11.661Z,14.86
2023-01-19T16:35:41.747Z,14.79
2023-01-19T16:38:10.302Z,14.71
2023-01-19T16:40:41.425Z,14.59
2023-01-19T16:43:11.446Z,14.48
2023-01-19T16:45:58.130Z,14.16
2023-01-19T16:48:27.796Z,14.14
2023-01-19T16:51:06.582Z,14.00
2023-01-19T16:53:35.778Z,13.97
2023-01-19T16:56:06.435Z,13.76
2023-01-19T16:58:38.249Z,13.77
2023-01-19T17:01:33.584Z,13.61
2023-01-19T17:04:01.815Z,13.49
2023-01-19T17:06:30.265Z,13.50
2023-01-19T17:08:59.347Z,13.39
2023-01-19T17:11:29.344Z,12.88
2023-01-19T17:14:02.189Z,13.30
2023-01-19T17:16:32.284Z,13.00
2023-01-19T17:19:02.372Z,13.25
2023-01-19T17:21:30.936Z,13.12
2023-01-19T17:24:00.510Z,13.07
2023-01-19T17:26:31.016Z,13.00
2023-01-19T17:29:01.557Z,12.89
2023-01-19T17:31:30.263Z,12.85
2023-01-19T17:34:03.731Z,12.83
2023-01-19T17:36:33.464Z,12.72
2023-01-19T17:39:06.250Z,12.77
2023-01-19T17:41:37.612Z,12.87
2023-01-19T17:44:07.956Z,12.98
2023-01-19T17:46:39.547Z,13.07
2023-01-19T17:49:11.216Z,12.71
2023-01-19T17:51:39.776Z,12.96
2023-01-19T17:54:08.240Z,12.91
2023-01-19T17:56:38.718Z,12.93
2023-01-19T17:59:08.551Z,13.00
2023-01-19T18:01:40.138Z,12.58
2023-01-19T18:04:11.337Z,12.86
2023-01-19T18:06:40.568Z,12.74
2023-01-19T18:09:16.260Z,12.91
2023-01-19T18:11:46.414Z,12.65
2023-01-19T18:14:18.116Z,12.77
2023-01-19T18:16:48.039Z,12.47
2023-01-19T18:19:16.513Z,12.10
2023-01-19T18:21:44.471Z,11.90
2023-01-19T18:24:14.035Z,11.74
2023-01-19T18:26:43.373Z,11.48
2023-01-19T18:29:11.526Z,11.64
2023-01-19T18:31:42.882Z,11.59
2023-01-19T18:34:12.154Z,11.43
2023-01-19T18:36:40.130Z,11.26
2023-01-19T18:39:10.522Z,10.72
2023-01-19T18:41:41.957Z,10.79
2023-01-19T18:44:10.903Z,10.46
2023-01-19T18:46:45.170Z,10.07
2023-01-19T18:49:14.387Z,9.74
2023-01-19T18:51:46.062Z,9.39
2023-01-19T18:54:14.154Z,9.19
2023-01-19T18:56:42.338Z,9.12
2023-01-19T18:59:11.073Z,9.07
2023-01-19T19:01:41.634Z,9.07
2023-01-19T19:04:14.857Z,8.96
2023-01-19T19:06:43.301Z,8.98
2023-01-19T19:09:11.204Z,8.86
2023-01-19T19:11:42.447Z,8.83
2023-01-19T19:14:12.011Z,8.85
2023-01-19T19:16:44.949Z,8.76
2023-01-19T19:19:15.595Z,8.70
2023-01-19T19:21:44.662Z,8.62
2023-01-19T19:24:15.148Z,8.54
2023-01-19T19:26:44.634Z,8.42
2023-01-19T19:29:15.195Z,8.25
2023-01-19T19:31:51.136Z,8.23
2023-01-19T19:34:19.105Z,8.13
2023-01-19T19:36:50.494Z,8.08
2023-01-19T19:39:19.935Z,8.01
2023-01-19T19:41:50.035Z,7.82
2023-01-19T19:44:18.119Z,7.67
2023-01-19T19:46:47.465Z,7.78
2023-01-19T19:49:17.809Z,7.93
2023-01-19T19:51:45.881Z,7.84
2023-01-19T19:54:15.178Z,7.87
2023-01-19T19:56:43.567Z,7.92
2023-01-19T19:59:11.618Z,7.97
2023-01-19T20:01:39.773Z,8.01
2023-01-19T20:04:11.083Z,8.12
2023-01-19T20:06:42.497Z,8.15
2023-01-19T20:09:12.829Z,8.15
2023-01-19T20:11:42.257Z,8.14
2023-01-19T20:14:13.779Z,8.20
2023-01-19T20:16:41.836Z,8.05
2023-01-19T20:19:11.847Z,7.90
2023-01-19T20:21:42.945Z,7.80
2023-01-19T20:24:14.945Z,7.87
2023-01-19T20:26:45.272Z,7.95
2023-01-19T20:29:13.197Z,7.96
2023-01-19T20:31:44.505Z,8.10
2023-01-19T20:34:15.994Z,8.23
2023-01-19T20:36:49.488Z,8.32
2023-01-19T20:39:17.920Z,8.26
2023-01-19T20:41:49.504Z,8.28
2023-01-19T20:44:21.076Z,8.27
2023-01-19T20:46:49.627Z,8.33
2023-01-19T20:49:22.578Z,8.33
2023-01-19T20:51:52.423Z,8.38
2023-01-19T20:54:24.501Z,8.40
2023-01-19T20:56:52.536Z,8.34
2023-01-19T20:59:21.140Z,8.29
2023-01-19T21:01:49.652Z,8.35
2023-01-19T21:04:19.473Z,8.38
2023-01-19T21:06:47.395Z,8.43
2023-01-19T21:09:15.512Z,8.44
2023-01-19T21:11:44.016Z,8.46
2023-01-19T21:14:12.550Z,8.45
2023-01-19T21:16:42.610Z,8.42
2023-01-19T21:19:10.709Z,8.32
2023-01-19T21:21:40.295Z,8.35
2023-01-19T21:24:11.531Z,8.34
2023-01-19T21:26:41.907Z,8.33
2023-01-19T21:29:13.332Z,8.28
2023-01-19T21:31:43.417Z,8.28
2023-01-19T21:34:11.767Z,8.24
2023-01-19T21:36:41.185Z,8.26
2023-01-19T21:39:19.986Z,8.17
2023-01-19T21:41:47.936Z,8.12
2023-01-19T21:44:20.213Z,8.07
2023-01-19T21:46:48.262Z,8.02
2023-01-19T21:49:19.382Z,7.95
2023-01-19T21:51:50.657Z,7.91
2023-01-19T21:54:19.525Z,7.89
2023-01-19T21:56:47.748Z,7.88
2023-01-19T21:59:20.201Z,7.90
2023-01-19T22:01:48.508Z,7.93
2023-01-19T22:04:16.545Z,7.94
2023-01-19T22:06:44.620Z,7.88
2023-01-19T22:09:14.071Z,7.89
2023-01-19T22:11:42.022Z,7.93
2023-01-19T22:14:11.465Z,7.96
2023-01-19T22:16:41.410Z,7.97
2023-01-19T22:19:17.148Z,8.01
2023-01-19T22:21:46.660Z,8.03
2023-01-19T22:24:18.622Z,8.13
2023-01-19T22:26:49.302Z,8.19
2023-01-19T22:29:18.165Z,8.25
2023-01-19T22:31:47.023Z,8.21
2023-01-19T22:34:17.084Z,8.19
2023-01-19T22:36:45.417Z,8.06
2023-01-19T22:39:15.551Z,8.05
2023-01-19T22:41:45.935Z,8.02
2023-01-19T22:44:15.800Z,7.93
2023-01-19T22:46:43.861Z,7.82
2023-01-19T22:49:15.353Z,7.84
2023-01-19T22:51:44.385Z,7.79
2023-01-19T22:54:12.359Z,7.73
2023-01-19T22:56:42.681Z,7.57
2023-01-19T22:59:10.707Z,7.58
2023-01-19T23:01:40.192Z,7.59
2023-01-19T23:04:10.435Z,7.61
2023-01-19T23:06:39.141Z,7.59
2023-01-19T23:09:08.394Z,7.50
2023-01-19T23:11:37.935Z,7.44
2023-01-19T23:14:08.017Z,7.47
2023-01-19T23:16:36.469Z,7.45
2023-01-19T23:19:05.167Z,7.40
2023-01-19T23:21:33.525Z,7.44
2023-01-19T23:24:03.544Z,7.45
2023-01-19T23:26:37.968Z,7.48
2023-01-19T23:29:09.585Z,7.42
2023-01-19T23:31:41.595Z,7.46
2023-01-19T23:34:11.254Z,7.46
2023-01-19T23:36:41.800Z,7.46
2023-01-19T23:39:14.470Z,7.44
2023-01-19T23:41:43.031Z,7.44
2023-01-19T23:44:14.012Z,7.44
2023-01-19T23:46:43.945Z,7.43
2023-01-19T23:49:13.696Z,7.39
2023-01-19T23:51:47.685Z,7.36
2023-01-19T23:54:17.175Z,7.41
2023-01-19T23:56:48.796Z,7.42
2023-01-19T23:59:20.192Z,7.40
